Time;durP1;ratioP1;P1;durP2;ratioP2;P2;SDS_P1;SDS_P2;PMS_P1;PMS_P2;Temp;Humidity;BMP_temperature;BMP_pressure;BME280_temperature;BME280_humidity;BME280_pressure;Samples;Min_cycle;Max_cycle;Signal;HPM_P1;HPM_P2
2021/12/03 00:02:14;;;;;;;37.28;31.75;;;;;;;7.84;82.27;99918.75;4972789;28;20475;-84
2021/12/03 00:04:41;;;;;;;35.42;31.25;;;;;;;7.29;81.72;99836.44;4991172;28;20054;-83
2021/12/03 00:07:07;;;;;;;36.55;32.60;;;;;;;7.69;82.19;99894.53;4990550;28;20046;-82
2021/12/03 00:09:36;;;;;;;38.10;31.73;;;;;;;7.82;81.77;99925.97;4973027;28;20489;-84
2021/12/03 00:12:04;;;;;;;34.95;31.23;;;;;;;7.65;81.84;99902.84;4973036;28;20129;-83
2021/12/03 00:14:32;;;;;;;35.95;31.65;;;;;;;7.82;82.28;99933.91;4973124;28;20050;-82
2021/12/03 00:16:59;;;;;;;37.63;33.25;;;;;;;7.86;82.82;99937.97;4973213;28;20152;-82
2021/12/03 00:19:26;;;;;;;37.53;32.42;;;;;;;7.50;82.39;99875.97;4973065;28;20113;-82
2021/12/03 00:21:53;;;;;;;37.65;31.20;;;;;;;7.75;82.60;99911.63;4990367;28;20134;-82
2021/12/03 00:24:20;;;;;;;36.80;32.85;;;;;;;7.73;81.88;99910.09;4972970;28;20490;-84
2021/12/03 00:26:47;;;;;;;37.25;32.47;;;;;;;7.44;82.01;99874.69;4972577;28;20077;-83
2021/12/03 00:29:14;;;;;;;34.47;30.35;;;;;;;7.70;82.30;99925.25;4972791;28;20508;-82
2021/12/03 00:31:41;;;;;;;36.53;30.90;;;;;;;7.04;82.29;99819.25;4990371;28;20190;-83
2021/12/03 00:34:08;;;;;;;33.92;30.35;;;;;;;7.66;81.86;99928.28;4972800;28;20089;-83
2021/12/03 00:36:35;;;;;;;34.63;30.85;;;;;;;7.57;81.89;99921.97;4990720;28;20074;-83
2021/12/03 00:39:04;;;;;;;34.65;30.88;;;;;;;7.60;82.02;99936.75;4973407;28;20172;-82
2021/12/03 00:41:35;;;;;;;33.63;30.08;;;;;;;7.74;82.56;99964.59;4990607;28;20134;-84
2021/12/03 00:44:01;;;;;;;34.22;30.48;;;;;;;7.52;82.44;99939.22;4973197;28;20113;-85
2021/12/03 00:46:28;;;;;;;33.58;29.58;;;;;;;7.70;82.86;99974.59;4972786;28;20058;-84
2021/12/03 00:48:55;;;;;;;35.25;30.40;;;;;;;7.34;82.77;99929.28;4972725;28;20080;-83
2021/12/03 00:51:24;;;;;;;33.53;29.85;;;;;;;7.43;82.71;99951.41;4989703;28;20054;-84
2021/12/03 00:53:52;;;;;;;33.65;29.70;;;;;;;7.39;83.33;99960.56;4972718;28;20137;-83
2021/12/03 00:56:18;;;;;;;35.25;31.50;;;;;;;7.49;83.49;99972.84;4972435;28;20042;-84
2021/12/03 00:58:46;;;;;;;35.50;31.63;;;;;;;7.10;83.55;99902.34;4972663;28;20077;-84
2021/12/03 01:01:14;;;;;;;33.40;29.30;;;;;;;7.67;83.56;99996.84;4989686;28;20081;-84
2021/12/03 01:03:40;;;;;;;34.78;30.95;;;;;;;7.68;83.69;99992.41;4972531;28;20054;-83
2021/12/03 01:06:08;;;;;;;35.90;32.00;;;;;;;7.53;83.85;99964.66;4989909;28;20137;-86
2021/12/03 01:08:35;;;;;;;35.33;31.60;;;;;;;7.64;83.51;99990.97;4972579;28;20062;-83
2021/12/03 01:11:05;;;;;;;34.63;30.92;;;;;;;6.79;83.74;99855.63;4972969;28;20209;-84
2021/12/03 01:13:31;;;;;;;34.53;30.00;;;;;;;7.52;83.69;99977.03;4972406;28;20360;-83
2021/12/03 01:15:58;;;;;;;34.58;30.67;;;;;;;7.19;83.70;99922.69;4972069;28;20150;-83
2021/12/03 01:18:25;;;;;;;37.00;32.20;;;;;;;7.66;83.91;100002.25;4971954;28;20412;-82
2021/12/03 01:20:52;;;;;;;34.42;30.70;;;;;;;7.70;84.04;100006.31;4989580;28;20610;-84
2021/12/03 01:23:18;;;;;;;35.55;31.55;;;;;;;6.50;83.21;99818.53;4972256;28;20050;-86
2021/12/03 01:25:45;;;;;;;33.03;29.52;;;;;;;7.63;83.23;100010.44;4973043;28;20050;-83
2021/12/03 01:28:12;;;;;;;33.60;29.98;;;;;;;7.68;83.21;100021.47;4974475;28;20046;-85
2021/12/03 01:30:40;;;;;;;31.70;28.52;;;;;;;6.92;83.44;99908.22;4975603;28;20073;-83
2021/12/03 01:33:07;;;;;;;33.50;29.90;;;;;;;7.16;83.28;99954.59;4992806;28;20125;-81
2021/12/03 01:35:35;;;;;;;31.65;28.17;;;;;;;7.52;83.76;100013.16;4992706;28;20042;-83
2021/12/03 01:38:04;;;;;;;30.45;27.25;;;;;;;6.93;83.95;99919.59;4974007;28;20053;-83
2021/12/03 01:40:31;;;;;;;31.58;28.27;;;;;;;7.18;83.68;99968.50;4970925;28;20060;-83
2021/12/03 01:42:58;;;;;;;29.88;26.88;;;;;;;6.93;84.01;99938.91;4971368;28;20480;-81
2021/12/03 01:45:28;;;;;;;30.35;27.05;;;;;;;7.26;84.00;100011.78;4971193;28;20085;-84
2021/12/03 01:47:56;;;;;;;31.02;27.55;;;;;;;7.36;84.31;100022.41;4971205;28;20046;-81
2021/12/03 01:50:26;;;;;;;32.13;28.05;;;;;;;7.34;84.28;100026.16;4972866;28;20106;-80
2021/12/03 01:52:53;;;;;;;31.20;27.88;;;;;;;7.15;84.45;100011.84;4991365;28;20758;-81
2021/12/03 01:55:20;;;;;;;30.92;27.73;;;;;;;7.32;84.66;100033.34;4973837;28;20052;-84
2021/12/03 01:57:47;;;;;;;29.45;26.25;;;;;;;7.27;84.98;100025.81;4972317;28;20166;-82
2021/12/03 02:00:20;;;;;;;31.13;27.42;;;;;;;6.94;84.73;99981.97;4971594;28;20046;-83
2021/12/03 02:02:48;;;;;;;29.83;26.38;;;;;;;7.25;85.37;100033.03;4973338;28;20491;-83
2021/12/03 02:05:15;;;;;;;29.35;26.08;;;;;;;7.28;85.09;100038.03;4967757;28;20081;-83
2021/12/03 02:07:43;;;;;;;30.90;27.70;;;;;;;7.14;85.76;100017.25;4967767;28;20145;-84
2021/12/03 02:10:11;;;;;;;30.42;27.25;;;;;;;7.26;85.62;100051.38;4967309;28;20055;-82
2021/12/03 02:12:37;;;;;;;29.98;26.92;;;;;;;5.91;85.29;99826.97;4967460;28;20094;-85
2021/12/03 02:15:05;;;;;;;29.45;26.35;;;;;;;6.40;85.38;99913.41;4968483;28;20141;-82
2021/12/03 02:17:32;;;;;;;30.60;27.30;;;;;;;7.23;85.68;100050.78;4966783;28;20528;-82
2021/12/03 02:19:59;;;;;;;30.75;27.48;;;;;;;7.19;85.74;100046.75;4967169;28;20134;-82
2021/12/03 02:22:27;;;;;;;31.38;27.95;;;;;;;6.98;85.46;100010.59;4967388;28;20053;-83
2021/12/03 02:24:54;;;;;;;30.60;27.23;;;;;;;6.97;85.49;100011.59;4967046;28;20145;-85
2021/12/03 02:27:21;;;;;;;31.30;27.65;;;;;;;6.87;85.39;100001.91;4967611;28;20058;-83
2021/12/03 02:29:47;;;;;;;30.10;27.00;;;;;;;6.92;86.09;100023.47;4967536;28;20149;-82
2021/12/03 02:32:14;;;;;;;31.45;28.15;;;;;;;7.10;86.01;100060.72;4967555;28;20137;-85
2021/12/03 02:34:41;;;;;;;32.28;28.05;;;;;;;7.12;86.71;100069.34;4967692;28;20054;-83
2021/12/03 02:37:08;;;;;;;29.02;25.92;;;;;;;7.11;86.18;100060.56;4967784;28;20054;-85
2021/12/03 02:39:34;;;;;;;29.92;25.88;;;;;;;7.04;86.34;100030.41;4967175;28;20140;-83
2021/12/03 02:42:01;;;;;;;28.60;25.58;;;;;;;7.12;86.32;100053.50;4983465;28;20053;-82
2021/12/03 02:44:28;;;;;;;29.63;26.45;;;;;;;7.32;86.02;100087.00;4983035;28;20082;-83
2021/12/03 02:46:54;;;;;;;27.85;24.98;;;;;;;7.28;85.63;100075.00;4966717;28;20047;-84
2021/12/03 02:49:21;;;;;;;29.70;25.77;;;;;;;6.72;85.20;99998.75;4966371;28;20496;-83
2021/12/03 02:51:48;;;;;;;29.55;26.45;;;;;;;7.10;85.42;100060.72;4967045;28;20142;-86
2021/12/03 02:54:14;;;;;;;31.00;26.08;;;;;;;7.02;85.29;100054.25;4966914;28;20081;-83
2021/12/03 02:56:41;;;;;;;29.10;26.00;;;;;;;7.19;85.59;100084.53;4968445;28;20050;-82
2021/12/03 02:59:08;;;;;;;29.65;25.05;;;;;;;6.45;86.00;99971.03;4982337;28;20133;-82
2021/12/03 03:01:35;;;;;;;27.20;24.17;;;;;;;7.25;85.80;100104.31;4968995;28;20078;-82
2021/12/03 03:04:02;;;;;;;25.98;23.00;;;;;;;7.07;85.84;100086.38;4987398;28;20501;-81
2021/12/03 03:06:30;;;;;;;26.77;23.60;;;;;;;7.18;86.03;100101.31;4985986;28;20058;-83
2021/12/03 03:08:56;;;;;;;24.70;22.05;;;;;;;7.07;85.76;100094.31;4970260;28;20382;-82
2021/12/03 03:11:23;;;;;;;25.40;21.55;;;;;;;7.17;85.75;100120.78;4970991;28;20061;-83
2021/12/03 03:13:50;;;;;;;26.00;23.05;;;;;;;7.00;85.86;100098.41;4988522;28;20488;-83
2021/12/03 03:16:18;;;;;;;26.17;22.58;;;;;;;6.61;85.57;100040.03;4988896;28;20046;-83
2021/12/03 03:18:45;;;;;;;23.00;20.50;;;;;;;7.18;85.53;100138.28;4970065;28;20103;-84
2021/12/03 03:21:12;;;;;;;24.50;21.90;;;;;;;7.20;85.41;100140.81;4970273;28;20129;-82
2021/12/03 03:23:39;;;;;;;25.13;21.88;;;;;;;7.21;85.41;100145.16;4970303;28;20050;-84
2021/12/03 03:26:06;;;;;;;23.00;19.45;;;;;;;7.11;85.76;100136.28;4970158;28;20050;-83
2021/12/03 03:28:34;;;;;;;21.00;18.10;;;;;;;6.64;84.93;100060.03;4970887;28;20053;-82
2021/12/03 03:31:01;;;;;;;20.17;17.90;;;;;;;7.19;85.44;100160.28;4987966;28;20160;-82
2021/12/03 03:33:29;;;;;;;19.63;17.63;;;;;;;7.17;84.97;100178.03;4987905;28;20580;-84
2021/12/03 03:35:55;;;;;;;19.13;16.60;;;;;;;7.18;85.25;100169.13;4988395;28;20179;-83
2021/12/03 03:38:22;;;;;;;15.55;13.93;;;;;;;7.18;84.99;100182.34;4972917;28;20108;-83
2021/12/03 03:40:51;;;;;;;16.52;14.88;;;;;;;7.16;85.25;100193.03;4971781;28;20050;-83
2021/12/03 03:43:18;;;;;;;14.90;13.30;;;;;;;6.07;84.81;100008.38;4972697;28;20118;-83
2021/12/03 03:45:46;;;;;;;16.90;13.77;;;;;;;6.91;84.59;100157.22;4970996;28;20050;-82
2021/12/03 03:48:13;;;;;;;13.02;11.63;;;;;;;6.62;84.38;100112.91;4970771;28;20492;-83
2021/12/03 03:50:39;;;;;;;13.25;11.30;;;;;;;6.87;84.03;100161.09;4970265;28;20473;-81
2021/12/03 03:53:07;;;;;;;12.93;11.07;;;;;;;7.11;84.29;100195.19;4969413;28;20078;-83
2021/12/03 03:55:33;;;;;;;14.35;12.25;;;;;;;7.07;84.75;100186.69;4969476;28;20105;-82
2021/12/03 03:58:02;;;;;;;13.80;12.38;;;;;;;7.20;84.27;100214.72;4973268;28;20072;-84
2021/12/03 04:00:40;;;;;;;13.82;12.35;;;;;;;6.81;84.27;100154.47;4990723;28;20471;-81
2021/12/03 04:03:08;;;;;;;12.88;11.48;;;;;;;7.03;83.97;100197.63;4972834;28;20493;-81
2021/12/03 04:05:34;;;;;;;11.50;10.38;;;;;;;7.03;83.79;100201.09;4972547;28;20042;-83
2021/12/03 04:08:02;;;;;;;12.57;11.27;;;;;;;7.13;83.79;100229.38;4988928;28;20389;-82
2021/12/03 04:10:29;;;;;;;12.27;10.98;;;;;;;7.23;83.85;100252.31;4989997;28;20442;-83
2021/12/03 04:12:56;;;;;;;13.63;10.80;;;;;;;6.31;84.26;100111.88;4973398;28;20064;-80
2021/12/03 04:15:23;;;;;;;13.18;11.85;;;;;;;7.18;84.12;100258.91;4972973;28;20038;-84
2021/12/03 04:17:49;;;;;;;12.98;11.68;;;;;;;7.24;84.61;100272.44;4990113;28;20073;-84
2021/12/03 04:20:18;;;;;;;12.70;11.40;;;;;;;7.18;84.34;100280.03;4973259;28;20493;-84
2021/12/03 04:22:47;;;;;;;13.85;12.18;;;;;;;7.15;84.56;100277.63;4972629;28;20133;-82
2021/12/03 04:25:17;;;;;;;15.38;13.60;;;;;;;6.48;84.46;100188.81;4973052;28;20121;-82
2021/12/03 04:27:45;;;;;;;15.20;12.68;;;;;;;6.40;84.72;100174.41;4972836;28;20068;-82
2021/12/03 04:30:16;;;;;;;13.05;11.75;;;;;;;5.32;84.99;100004.53;4990354;28;20046;-85
2021/12/03 04:32:43;;;;;;;14.93;13.32;;;;;;;6.69;85.15;100237.22;4972738;28;20293;-84
2021/12/03 04:35:10;;;;;;;13.82;12.15;;;;;;;7.07;85.40;100302.84;4989277;28;20049;-85
2021/12/03 04:37:38;;;;;;;14.68;13.07;;;;;;;6.91;85.60;100272.50;4973055;28;20133;-83
2021/12/03 04:40:07;;;;;;;13.85;12.35;;;;;;;6.95;85.50;100284.50;4972547;28;20042;-82
2021/12/03 04:42:34;;;;;;;15.23;13.52;;;;;;;6.99;85.46;100299.97;4989580;28;20088;-83
2021/12/03 04:45:01;;;;;;;12.68;11.48;;;;;;;6.69;85.50;100246.97;4990002;28;20046;-80
2021/12/03 04:47:27;;;;;;;13.77;12.05;;;;;;;6.95;85.44;100301.16;4989470;28;20090;-81
2021/12/03 04:49:54;;;;;;;13.10;11.45;;;;;;;6.75;85.07;100275.50;4972684;28;20145;-81
2021/12/03 04:52:20;;;;;;;14.20;12.57;;;;;;;6.82;85.44;100290.75;4972952;28;20289;-84
2021/12/03 04:54:47;;;;;;;14.13;12.63;;;;;;;7.06;85.53;100324.06;4989739;28;20408;-82
2021/12/03 04:57:14;;;;;;;14.60;13.13;;;;;;;7.00;85.38;100332.47;4972634;28;20133;-82
2021/12/03 04:59:40;;;;;;;14.55;13.05;;;;;;;6.70;84.89;100277.63;4972340;28;20365;-82
2021/12/03 05:02:07;;;;;;;14.07;12.57;;;;;;;6.89;84.92;100306.91;4989362;28;20145;-81
2021/12/03 05:04:38;;;;;;;13.82;12.40;;;;;;;6.96;85.08;100326.59;4990580;28;20539;-83
2021/12/03 05:09:34;;;;;;;12.57;11.38;;;;;;;6.91;84.13;100335.81;4989434;28;20053;-81
2021/12/03 05:12:01;;;;;;;14.80;11.70;;;;;;;6.73;84.71;100309.09;4972971;28;20057;-83
2021/12/03 05:14:29;;;;;;;13.02;11.70;;;;;;;6.87;84.69;100329.97;4972817;28;20064;-82
2021/12/03 05:16:55;;;;;;;11.75;10.55;;;;;;;7.07;84.53;100362.72;4972288;28;20050;-82
2021/12/03 05:19:23;;;;;;;11.70;10.50;;;;;;;6.89;83.90;100328.03;4972389;28;20134;-82
2021/12/03 05:21:49;;;;;;;11.52;9.88;;;;;;;6.82;83.81;100332.09;4972470;28;20141;-84
2021/12/03 05:24:17;;;;;;;9.27;8.43;;;;;;;7.10;84.82;100382.75;4972501;28;20058;-82
2021/12/03 05:26:45;;;;;;;9.48;8.45;;;;;;;7.09;83.78;100381.91;4989507;28;20073;-82
2021/12/03 05:29:13;;;;;;;10.50;9.45;;;;;;;7.01;83.66;100379.84;4989524;28;20054;-81
2021/12/03 05:31:41;;;;;;;10.10;8.98;;;;;;;6.93;83.82;100382.25;4989267;28;20455;-81
2021/12/03 05:34:26;;;;;;;9.90;8.95;;;;;;;7.03;84.28;100399.03;4974347;28;20082;-83
2021/12/03 05:36:53;;;;;;;9.57;8.57;;;;;;;6.60;84.14;100343.47;4971542;28;20456;-81
2021/12/03 05:39:19;;;;;;;10.50;9.45;;;;;;;7.05;84.35;100415.63;4971831;28;20137;-82
2021/12/03 05:41:46;;;;;;;9.82;8.82;;;;;;;6.82;84.37;100374.31;4971601;28;20100;-82
2021/12/03 05:44:13;;;;;;;9.90;8.20;;;;;;;6.95;84.01;100408.53;4988726;28;20137;-83
2021/12/03 05:46:40;;;;;;;9.40;8.45;;;;;;;6.77;84.25;100376.47;4971309;28;20054;-84
2021/12/03 05:49:07;;;;;;;9.07;8.27;;;;;;;6.59;84.47;100361.09;4973464;28;20416;-82
2021/12/03 05:51:34;;;;;;;8.63;7.82;;;;;;;6.70;84.37;100385.78;4975813;28;20516;-82
2021/12/03 05:54:00;;;;;;;8.05;7.25;;;;;;;6.85;83.95;100413.69;4975515;28;20129;-82
2021/12/03 05:56:27;;;;;;;8.93;8.02;;;;;;;7.07;84.09;100458.56;4973484;28;20164;-83
2021/12/03 05:58:58;;;;;;;7.53;6.75;;;;;;;7.07;83.75;100463.84;4978500;28;20046;-82
2021/12/03 06:01:25;;;;;;;9.80;8.05;;;;;;;7.06;83.37;100477.16;4977574;28;20057;-82
2021/12/03 06:03:51;;;;;;;7.97;7.18;;;;;;;7.04;83.47;100469.38;4968644;28;20057;-84
2021/12/03 06:06:19;;;;;;;8.18;7.47;;;;;;;6.98;83.78;100467.19;4969776;28;20492;-82
2021/12/03 06:08:45;;;;;;;9.38;7.35;;;;;;;6.74;83.99;100429.47;4970283;28;20065;-84
2021/12/03 06:11:12;;;;;;;7.78;7.05;;;;;;;6.83;84.18;100444.59;4969452;28;20050;-82
2021/12/03 06:13:39;;;;;;;9.20;8.32;;;;;;;7.06;84.03;100488.59;4987105;28;20105;-83
2021/12/03 06:16:11;;;;;;;9.18;8.27;;;;;;;6.96;84.29;100471.75;4968686;28;20134;-83
2021/12/03 06:18:39;;;;;;;8.23;7.40;;;;;;;7.00;84.43;100475.84;4984945;28;20507;-86
2021/12/03 06:21:07;;;;;;;10.63;8.68;;;;;;;6.96;83.56;100470.91;4967548;28;20584;-82
2021/12/03 06:23:34;;;;;;;9.05;8.15;;;;;;;7.03;83.51;100478.22;4984032;28;20285;-82
2021/12/03 06:26:01;;;;;;;9.65;8.35;;;;;;;7.08;83.02;100504.28;4985163;28;20086;-87
2021/12/03 06:28:30;;;;;;;8.60;7.75;;;;;;;7.07;83.34;100508.72;4968070;28;20138;-83
2021/12/03 06:30:57;;;;;;;8.00;7.18;;;;;;;7.06;83.50;100514.97;4968073;28;20050;-86
2021/12/03 06:33:24;;;;;;;8.02;7.22;;;;;;;7.04;83.61;100516.06;4968703;28;20043;-82
2021/12/03 06:35:52;;;;;;;8.45;7.65;;;;;;;6.66;83.70;100463.50;4969276;28;20046;-84
2021/12/03 06:38:20;;;;;;;9.77;7.57;;;;;;;7.11;83.87;100537.53;4986517;28;20050;-84
2021/12/03 06:40:48;;;;;;;7.95;7.15;;;;;;;7.05;84.16;100523.84;5005301;28;20077;-83
2021/12/03 06:43:15;;;;;;;8.15;7.35;;;;;;;7.14;83.58;100532.03;4988370;28;20595;-81
2021/12/03 06:45:42;;;;;;;8.18;7.05;;;;;;;6.71;83.41;100483.31;4988352;28;20057;-83
2021/12/03 06:48:09;;;;;;;7.53;6.82;;;;;;;7.10;83.62;100541.13;5004743;28;20052;-82
2021/12/03 06:50:38;;;;;;;8.50;6.97;;;;;;;7.04;83.94;100538.00;4988578;28;20057;-81
2021/12/03 06:53:07;;;;;;;11.05;7.03;;;;;;;7.03;83.78;100535.47;4988265;28;20145;-81
2021/12/03 06:55:57;;;;;;;7.75;6.68;;;;;;;7.14;83.59;100547.88;4988620;28;20139;-83
2021/12/03 06:58:24;;;;;;;7.63;6.93;;;;;;;6.79;83.37;100474.81;5005822;28;20063;-84
2021/12/03 07:00:53;;;;;;;7.10;6.40;;;;;;;7.13;82.46;100546.19;4988404;28;20054;-84
2021/12/03 07:03:21;;;;;;;6.72;5.97;;;;;;;7.35;82.77;100591.13;5005797;28;20069;-84
2021/12/03 07:05:48;;;;;;;7.63;6.93;;;;;;;7.19;82.60;100572.13;5006151;28;20116;-84
2021/12/03 07:08:15;;;;;;;6.82;6.20;;;;;;;7.36;83.18;100600.75;4995010;28;20143;-84
2021/12/03 07:10:42;;;;;;;7.63;6.82;;;;;;;7.45;83.13;100615.91;4966401;28;20051;-83
2021/12/03 07:13:08;;;;;;;6.95;6.35;;;;;;;6.70;83.19;100486.03;4975904;28;20132;-84
2021/12/03 07:15:35;;;;;;;7.32;6.63;;;;;;;7.30;83.22;100580.06;4961508;28;20042;-85
2021/12/03 07:18:02;;;;;;;11.35;7.32;;;;;;;7.60;82.84;100628.91;4982687;28;20355;-85
2021/12/03 07:20:30;;;;;;;6.53;5.93;;;;;;;6.44;82.42;100441.38;4971985;28;20050;-86
2021/12/03 07:22:57;;;;;;;6.97;6.28;;;;;;;6.90;81.84;100535.56;4986978;28;20066;-84
2021/12/03 07:25:24;;;;;;;7.50;6.80;;;;;;;6.76;82.59;100512.81;4982477;28;20050;-85
2021/12/03 07:27:51;;;;;;;8.90;6.65;;;;;;;6.60;82.68;100475.34;4970978;28;20492;-84
2021/12/03 07:30:19;;;;;;;9.63;6.43;;;;;;;6.13;82.33;100424.31;4986838;28;20306;-83
2021/12/03 07:32:46;;;;;;;7.53;6.72;;;;;;;7.63;82.36;100682.34;4989804;28;20504;-85
2021/12/03 07:35:13;;;;;;;8.77;6.60;;;;;;;7.49;82.50;100670.16;4992894;28;20050;-84
2021/12/03 07:37:42;;;;;;;7.53;6.82;;;;;;;7.52;82.57;100673.53;4992395;28;20058;-84
2021/12/03 07:40:10;;;;;;;7.90;7.10;;;;;;;6.03;82.52;100418.88;4992375;28;20148;-84
2021/12/03 07:42:37;;;;;;;7.40;6.68;;;;;;;6.93;82.31;100572.25;5007767;28;20049;-82
2021/12/03 07:45:06;;;;;;;8.57;7.68;;;;;;;7.16;82.23;100627.78;5009219;28;20082;-84
2021/12/03 07:47:32;;;;;;;8.80;7.28;;;;;;;6.94;81.14;100589.81;4990826;28;20435;-83
2021/12/03 07:49:59;;;;;;;9.57;8.35;;;;;;;7.39;81.63;100663.91;4990483;28;20049;-82
2021/12/03 07:52:26;;;;;;;8.70;7.90;;;;;;;7.37;81.66;100664.97;5006622;28;20045;-83
2021/12/03 07:54:53;;;;;;;9.63;7.40;;;;;;;7.15;81.90;100641.94;4991238;28;20128;-83
2021/12/03 07:57:19;;;;;;;7.35;6.70;;;;;;;7.29;81.38;100670.81;4990854;28;20290;-82
2021/12/03 07:59:46;;;;;;;8.73;6.97;;;;;;;7.65;81.57;100732.44;5008943;28;20064;-85
2021/12/03 08:02:13;;;;;;;7.40;6.60;;;;;;;7.71;80.99;100747.84;5008914;28;20050;-83
2021/12/03 08:04:40;;;;;;;8.40;7.60;;;;;;;7.47;81.75;100716.16;4993474;28;20496;-82
2021/12/03 08:07:08;;;;;;;8.50;7.63;;;;;;;7.62;81.71;100737.94;5011220;28;20133;-85
2021/12/03 08:09:37;;;;;;;8.50;7.70;;;;;;;7.87;81.97;100766.88;4996172;28;20050;-84
2021/12/03 08:12:05;;;;;;;10.30;7.10;;;;;;;7.75;81.95;100754.59;5012988;28;20117;-85
2021/12/03 08:14:32;;;;;;;8.90;7.28;;;;;;;7.84;81.91;100775.03;5010186;28;20088;-84
2021/12/03 08:16:59;;;;;;;5.93;5.07;;;;;;;7.19;80.52;100659.25;5007637;28;20077;-81
2021/12/03 08:19:26;;;;;;;2.67;2.47;;;;;;;7.70;75.88;100735.59;4991775;28;20054;-84
2021/12/03 08:21:52;;;;;;;3.35;2.20;;;;;;;7.22;74.65;100674.88;4991691;28;20050;-86
2021/12/03 08:24:19;;;;;;;2.85;2.65;;;;;;;6.25;75.89;100534.16;4991382;28;20419;-82
2021/12/03 08:26:46;;;;;;;3.38;3.08;;;;;;;6.74;76.97;100629.97;4991751;28;20050;-84
2021/12/03 08:29:13;;;;;;;4.07;3.60;;;;;;;7.49;77.61;100754.69;4989835;28;20053;-83
2021/12/03 08:31:40;;;;;;;4.15;3.65;;;;;;;7.52;78.59;100750.16;4989248;28;20137;-86
2021/12/03 08:34:07;;;;;;;3.75;3.10;;;;;;;7.79;79.79;100808.03;5002857;28;20078;-83
2021/12/03 08:36:33;;;;;;;4.38;3.97;;;;;;;7.51;80.67;100766.97;5009103;28;20140;-85
2021/12/03 08:39:00;;;;;;;5.20;3.95;;;;;;;7.79;80.21;100829.19;4990945;28;20050;-87
2021/12/03 08:41:27;;;;;;;3.22;2.92;;;;;;;7.59;78.93;100759.31;4991353;28;20145;-83
2021/12/03 08:43:53;;;;;;;3.25;2.95;;;;;;;7.73;76.03;100793.50;5006075;28;20528;-82
2021/12/03 08:46:35;;;;;;;5.32;3.60;;;;;;;7.79;77.17;100816.84;4989278;28;20281;-83
2021/12/03 08:49:49;;;;;;;2.95;2.72;;;;;;;7.84;77.32;100838.47;4971825;28;20147;-84
2021/12/03 08:54:52;;;;;;;2.45;2.25;;;;;;;7.86;76.29;100830.41;4969953;28;20057;-82
2021/12/03 08:57:25;;;;;;;3.63;2.95;;;;;;;7.39;78.39;100760.78;4959524;28;20061;-82
2021/12/03 08:59:54;;;;;;;2.60;2.28;;;;;;;7.35;77.40;100757.50;4967568;28;20134;-82
2021/12/03 09:02:22;;;;;;;6.07;2.83;;;;;;;7.92;77.92;100807.03;4968083;28;20058;-82
2021/12/03 09:04:50;;;;;;;3.20;2.90;;;;;;;8.10;78.35;100846.28;4968646;28;20054;-82
2021/12/03 09:07:17;;;;;;;2.17;1.98;;;;;;;7.82;74.77;100797.25;4968068;28;20055;-83
2021/12/03 09:09:44;;;;;;;1.92;1.80;;;;;;;7.79;74.42;100803.63;4968229;28;20287;-83
2021/12/03 09:12:11;;;;;;;2.45;2.25;;;;;;;8.06;76.98;100842.19;4968311;28;20060;-83
2021/12/03 09:14:49;;;;;;;1.90;1.80;;;;;;;8.09;78.52;100852.53;4967793;28;20058;-83
2021/12/03 09:20:14;;;;;;;3.45;2.05;;;;;;;8.19;76.71;100863.25;4972137;28;20131;-85
2021/12/03 09:22:45;;;;;;;2.83;1.85;;;;;;;7.90;75.75;100822.16;4952487;28;20142;-84
2021/12/03 09:25:17;;;;;;;4.35;2.38;;;;;;;7.91;77.00;100825.63;4974574;28;20070;-86
2021/12/03 09:27:44;;;;;;;2.22;1.98;;;;;;;8.18;78.54;100883.59;4957583;28;20051;-83
2021/12/03 09:30:14;;;;;;;1.90;1.73;;;;;;;8.17;75.90;100892.44;4952949;28;20745;-82
2021/12/03 09:32:47;;;;;;;4.22;1.70;;;;;;;8.14;76.43;100882.94;4953195;28;20449;-82
2021/12/03 09:35:15;;;;;;;1.88;1.73;;;;;;;8.13;77.34;100885.69;4955374;28;20420;-82
2021/12/03 09:37:42;;;;;;;1.80;1.45;;;;;;;8.07;75.83;100886.16;4973172;28;20060;-83
2021/12/03 09:40:18;;;;;;;1.83;1.60;;;;;;;7.80;74.10;100831.72;4990838;28;20160;-82
2021/12/03 09:42:46;;;;;;;2.70;1.50;;;;;;;7.84;74.99;100846.41;4975457;28;20492;-83
2021/12/03 09:45:13;;;;;;;2.35;1.50;;;;;;;8.11;75.05;100891.13;4991956;28;20150;-82
2021/12/03 09:47:41;;;;;;;1.63;1.52;;;;;;;8.18;74.35;100894.16;4974942;28;20077;-82
2021/12/03 09:50:14;;;;;;;1.60;1.50;;;;;;;7.93;73.64;100837.78;4974010;28;20279;-83
2021/12/03 09:55:22;;;;;;;1.90;1.70;;;;;;;7.19;73.34;100709.44;4990732;28;20562;-84
2021/12/03 09:58:06;;;;;;;3.47;1.98;;;;;;;7.19;74.33;100722.63;4990777;28;20057;-83
2021/12/03 10:19:35;;;;;;;5.80;3.92;;;;;;;7.70;77.64;100849.22;4929345;29;20059;-83
2021/12/03 10:28:48;;;;;;;4.95;4.43;;;;;;;7.52;78.88;100810.91;4968398;28;20061;-84
2021/12/03 10:33:49;;;;;;;5.90;4.82;;;;;;;8.14;78.76;100912.03;5006628;28;20056;-83
2021/12/03 10:48:29;;;;;;;4.43;4.03;;;;;;;8.16;78.27;100914.59;5006649;28;20057;-84
2021/12/03 10:50:47;;;;;;;4.32;3.92;;;;;;;7.77;78.22;100855.75;5004403;28;20062;-83
2021/12/03 10:53:28;;;;;;;4.50;4.05;;;;;;;7.93;78.43;100895.94;4990136;28;20049;-83
2021/12/03 10:56:18;;;;;;;5.97;4.50;;;;;;;8.09;78.92;100926.56;4989107;28;20085;-83
2021/12/03 11:31:49;;;;;;;7.30;6.60;;;;;;;8.11;80.76;100929.94;5012001;28;20536;-84
2021/12/03 11:40:38;;;;;;;7.40;6.80;;;;;;;8.38;80.43;100926.22;5007330;28;20050;-83
2021/12/03 11:56:39;;;;;;;7.22;6.53;;;;;;;8.65;77.93;100928.63;5007259;28;20112;-81
2021/12/03 13:17:22;;;;;;;6.80;6.20;;;;;;;8.65;74.59;100847.41;4974137;28;20049;-81
2021/12/03 14:10:22;;;;;;;6.75;6.10;;;;;;;8.41;71.94;100809.59;4988505;28;20136;-81
2021/12/03 14:34:18;;;;;;;6.90;6.30;;;;;;;8.95;71.54;100926.25;4988659;28;20054;-83
2021/12/03 14:36:14;;;;;;;8.43;6.70;;;;;;;8.91;72.16;100929.28;4991958;28;20100;-83
2021/12/03 15:00:48;;;;;;;8.45;7.53;;;;;;;8.88;71.15;100977.16;4987221;28;20050;-81
2021/12/03 15:32:05;;;;;;;;;;;;;;;;;;;;;
2021/12/03 15:35:17;;;;;;;9.52;8.52;;;;;;;8.20;71.72;100908.09;4985126;28;20057;-80
2021/12/03 15:41:09;;;;;;;10.95;8.90;;;;;;;8.50;72.34;100967.66;4986672;28;20137;-81
2021/12/03 16:09:33;;;;;;;10.98;9.93;;;;;;;6.98;73.11;100746.13;4967627;28;20462;-81
2021/12/03 16:22:11;;;;;;;12.65;11.40;;;;;;;8.43;73.29;100988.44;4986870;28;20133;-81
2021/12/03 16:52:02;;;;;;;14.90;13.43;;;;;;;8.47;73.47;101047.25;4969775;28;20150;-83
2021/12/03 16:54:54;;;;;;;13.90;12.50;;;;;;;8.44;73.59;101050.13;4969872;28;20054;-83
2021/12/03 16:57:23;;;;;;;;;;;;;;;8.35;74.60;101049.81;4964314;28;20101;-85
2021/12/03 16:59:50;;;;;;;14.02;12.63;;;;;;;8.16;75.37;101023.00;4981743;28;19925;-82
2021/12/03 17:02:29;;;;;;;17.27;15.10;;;;;;;8.12;74.83;101016.25;5419387;22;20053;-82
2021/12/03 17:05:09;;;;;;;17.38;14.57;;;;;;;8.34;75.02;101056.06;4988540;28;20392;-84
2021/12/03 17:16:34;;;;;;;15.43;13.77;;;;;;;7.88;76.23;101001.16;4973119;28;20571;-84
2021/12/03 17:58:31;;;;;;;14.10;11.35;;;;;;;7.73;75.18;101093.94;5033115;28;20050;-82
2021/12/03 18:03:42;;;;;;;14.70;13.20;;;;;;;6.93;75.43;100976.09;5012934;28;20284;-84
2021/12/03 18:45:39;;;;;;;16.85;13.52;;;;;;;7.21;75.94;101071.94;4967064;28;20054;-84
2021/12/03 18:56:29;;;;;;;17.65;14.82;;;;;;;7.35;75.13;101100.88;4966951;28;20160;-84
2021/12/03 18:58:59;;;;;;;15.57;13.98;;;;;;;6.55;75.99;100971.59;4965875;28;20049;-84
2021/12/03 19:01:28;;;;;;;14.60;13.02;;;;;;;6.18;75.52;100913.34;4967247;28;20475;-83
2021/12/03 19:09:18;;;;;;;16.20;13.65;;;;;;;7.27;75.48;101114.59;4986827;28;20054;-84
2021/12/03 19:11:54;;;;;;;15.07;13.52;;;;;;;7.56;76.14;101177.00;4969356;28;20050;-84
2021/12/03 19:14:22;;;;;;;15.63;13.88;;;;;;;7.54;76.05;101173.59;4969202;28;20524;-84
2021/12/03 19:16:55;;;;;;;16.67;14.05;;;;;;;7.16;76.19;101109.19;4969961;28;20112;-83
2021/12/03 19:19:22;;;;;;;15.82;13.82;;;;;;;7.44;75.65;101160.16;4986568;28;20496;-84
2021/12/03 19:21:49;;;;;;;16.35;13.90;;;;;;;7.07;75.21;101115.09;4969300;28;20113;-82
2021/12/03 19:24:16;;;;;;;15.43;13.82;;;;;;;7.47;75.78;101184.56;4969442;28;20141;-82
2021/12/03 19:26:44;;;;;;;15.73;14.05;;;;;;;7.31;76.30;101160.16;4985020;28;20077;-84
2021/12/03 19:29:17;;;;;;;14.90;13.45;;;;;;;7.44;76.01;101176.03;4992393;28;20105;-82